Time;durP1;ratioP1;P1;durP2;ratioP2;P2;SDS_P1;SDS_P2;PMS_P1;PMS_P2;Temp;Humidity;BMP_temperature;BMP_pressure;BME280_temperature;BME280_humidity;BME280_pressure;Samples;Min_cycle;Max_cycle;Signal;HPM_P1;HPM_P2
2023/10/01 00:00:29;;;;;;;9.98;5.32;;;14.70;99.90;;;;;;5075293;28;20045;-74
2023/10/01 00:02:56;;;;;;;7.95;5.28;;;14.70;99.90;;;;;;5076076;28;20051;-74
2023/10/01 00:05:23;;;;;;;9.85;5.53;;;14.60;99.90;;;;;;5057758;28;20040;-74
2023/10/01 00:07:51;;;;;;;10.73;5.30;;;14.60;99.90;;;;;;5075164;28;20095;-74
2023/10/01 00:10:18;;;;;;;8.40;5.88;;;14.50;99.90;;;;;;5075139;28;20048;-75
2023/10/01 00:12:46;;;;;;;9.88;5.60;;;14.50;99.90;;;;;;5074140;28;20538;-74
2023/10/01 00:15:18;;;;;;;8.95;5.43;;;14.50;99.90;;;;;;5074688;28;20493;-75
2023/10/01 00:17:46;;;;;;;8.93;5.63;;;14.50;99.90;;;;;;5074296;28;20063;-74
2023/10/01 00:20:35;;;;;;;12.40;6.88;;;14.50;99.90;;;;;;5075499;28;20056;-74
2023/10/01 00:23:03;;;;;;;9.23;5.65;;;14.50;99.90;;;;;;5074503;28;20255;-74
2023/10/01 00:25:30;;;;;;;10.15;5.65;;;14.40;99.90;;;;;;5074872;28;20098;-73
2023/10/01 00:27:59;;;;;;;10.18;5.43;;;14.30;99.90;;;;;;5074848;28;20052;-74
2023/10/01 00:30:30;;;;;;;11.90;6.15;;;14.30;99.90;;;;;;5074722;28;20067;-74
2023/10/01 00:32:56;;;;;;;10.98;6.47;;;14.20;99.90;;;;;;5074809;28;20481;-74
2023/10/01 00:35:21;;;;;;;10.05;6.47;;;14.20;99.90;;;;;;5074675;28;20051;-74
2023/10/01 00:37:47;;;;;;;11.57;6.82;;;14.20;99.90;;;;;;5075177;28;20442;-74
2023/10/01 00:40:14;;;;;;;10.82;6.45;;;14.20;99.90;;;;;;5074830;28;20063;-73
2023/10/01 00:42:40;;;;;;;11.30;6.60;;;14.20;99.90;;;;;;5074602;28;20400;-74
2023/10/01 00:45:08;;;;;;;11.10;6.60;;;14.20;99.90;;;;;;5074464;28;20040;-73
2023/10/01 00:47:40;;;;;;;11.20;6.30;;;14.30;99.90;;;;;;5074965;28;20045;-74
2023/10/01 00:50:11;;;;;;;10.25;6.50;;;14.30;99.90;;;;;;5074574;28;20054;-74
2023/10/01 00:52:38;;;;;;;10.82;6.75;;;14.20;99.90;;;;;;5074167;28;20180;-73
2023/10/01 00:55:05;;;;;;;11.77;6.72;;;14.30;99.90;;;;;;5073100;28;20370;-74
2023/10/01 00:57:31;;;;;;;8.88;6.47;;;14.30;99.90;;;;;;5074331;28;20064;-74
2023/10/01 00:59:57;;;;;;;10.23;5.57;;;14.30;99.90;;;;;;5074109;28;20040;-74
2023/10/01 01:02:23;;;;;;;11.30;6.75;;;14.30;99.90;;;;;;5074166;28;20052;-73
2023/10/01 01:05:06;;;;;;;11.75;5.95;;;14.20;99.90;;;;;;5075500;28;20044;-73
2023/10/01 01:07:40;;;;;;;10.48;6.15;;;14.20;99.90;;;;;;5075739;28;20051;-74
2023/10/01 01:10:06;;;;;;;9.77;6.53;;;14.10;99.90;;;;;;5074514;28;20486;-75
2023/10/01 01:12:32;;;;;;;11.45;6.93;;;14.10;99.90;;;;;;5074674;28;20055;-75
2023/10/01 01:14:58;;;;;;;10.02;6.78;;;14.10;99.90;;;;;;5073915;28;20040;-74
2023/10/01 01:17:27;;;;;;;10.80;7.32;;;14.00;99.90;;;;;;5073997;28;20040;-74
2023/10/01 01:19:53;;;;;;;10.50;6.72;;;14.00;99.90;;;;;;5073917;28;20178;-74
2023/10/01 01:22:28;;;;;;;8.98;6.40;;;14.00;99.90;;;;;;5073958;28;20048;-74
2023/10/01 01:24:57;;;;;;;11.55;6.70;;;14.00;99.90;;;;;;5074491;28;20045;-74
2023/10/01 01:27:23;;;;;;;12.05;7.50;;;14.10;99.90;;;;;;5073800;28;20048;-74
2023/10/01 01:29:50;;;;;;;10.48;7.05;;;14.10;99.90;;;;;;5074272;28;20048;-74
2023/10/01 01:32:17;;;;;;;11.50;6.80;;;14.20;99.90;;;;;;5073704;28;20051;-74
2023/10/01 01:34:46;;;;;;;12.32;6.82;;;14.20;99.90;;;;;;5072565;28;20041;-75
2023/10/01 01:37:46;;;;;;;12.75;6.50;;;14.20;99.90;;;;;;5073655;28;20048;-75
2023/10/01 01:40:25;;;;;;;10.60;7.15;;;14.30;99.90;;;;;;5072420;28;20063;-73
2023/10/01 01:42:56;;;;;;;13.30;6.88;;;14.30;99.90;;;;;;5073754;28;20053;-75
2023/10/01 01:45:27;;;;;;;10.32;6.40;;;14.30;99.90;;;;;;5073721;28;20078;-74
2023/10/01 01:47:53;;;;;;;12.27;7.10;;;14.30;99.90;;;;;;5073669;28;20044;-74
2023/10/01 01:50:27;;;;;;;12.23;7.43;;;14.30;99.90;;;;;;5073671;28;20063;-74
2023/10/01 01:52:57;;;;;;;11.10;7.25;;;14.30;99.90;;;;;;5074071;28;20040;-74
2023/10/01 01:55:28;;;;;;;10.85;6.85;;;14.30;99.90;;;;;;5107010;28;20373;-73
2023/10/01 01:58:10;;;;;;;10.73;7.50;;;14.30;99.90;;;;;;5074044;28;20131;-72
2023/10/01 02:00:38;;;;;;;8.98;7.00;;;14.30;99.90;;;;;;5073775;28;20044;-73
2023/10/01 02:03:14;;;;;;;12.48;7.38;;;14.30;99.90;;;;;;5074277;28;20378;-73
2023/10/01 02:05:47;;;;;;;12.50;7.03;;;14.40;99.90;;;;;;5076366;28;20081;-71
2023/10/01 02:08:24;;;;;;;12.38;7.53;;;14.40;99.90;;;;;;5077201;28;20045;-73
2023/10/01 02:10:55;;;;;;;9.52;6.85;;;14.40;99.90;;;;;;5077562;28;20043;-73
2023/10/01 02:13:26;;;;;;;12.45;7.35;;;14.50;99.90;;;;;;5077522;28;20059;-74
2023/10/01 02:15:54;;;;;;;9.88;7.00;;;14.50;99.90;;;;;;5077598;28;20390;-73
2023/10/01 02:18:20;;;;;;;10.15;7.00;;;14.50;99.90;;;;;;5077548;28;20508;-74
2023/10/01 02:20:55;;;;;;;11.50;6.95;;;14.50;99.90;;;;;;5076666;28;20048;-74
2023/10/01 02:23:33;;;;;;;13.43;7.78;;;14.50;99.90;;;;;;5076639;28;20567;-74
2023/10/01 02:26:00;;;;;;;12.48;7.03;;;14.50;99.90;;;;;;5077297;28;20055;-74
2023/10/01 02:28:27;;;;;;;11.18;6.60;;;14.50;99.90;;;;;;5077214;28;20048;-74
2023/10/01 02:31:00;;;;;;;11.60;7.00;;;14.50;99.90;;;;;;5077128;28;20055;-74
2023/10/01 02:33:54;;;;;;;11.98;7.15;;;14.60;99.90;;;;;;5077049;28;20461;-74
2023/10/01 02:36:12;;;;;;;10.77;7.43;;;14.60;99.90;;;;;;5076531;28;20056;-74
2023/10/01 02:38:45;;;;;;;12.35;7.72;;;14.50;99.90;;;;;;5075740;28;20040;-74
2023/10/01 02:41:15;;;;;;;13.68;7.82;;;14.50;99.90;;;;;;5077804;28;20218;-74
2023/10/01 02:43:41;;;;;;;12.88;7.57;;;14.60;99.90;;;;;;5076787;28;20424;-74
2023/10/01 02:46:12;;;;;;;11.25;8.05;;;14.60;99.90;;;;;;5076852;28;20079;-73
2023/10/01 02:48:40;;;;;;;12.25;7.47;;;14.50;99.90;;;;;;5076874;28;20053;-74
2023/10/01 02:51:16;;;;;;;13.02;7.90;;;14.50;99.90;;;;;;5076723;28;20052;-74
2023/10/01 02:54:00;;;;;;;14.75;8.18;;;14.50;99.90;;;;;;5076629;28;20052;-74
2023/10/01 02:56:32;;;;;;;11.20;7.68;;;14.50;99.90;;;;;;5077066;28;20052;-74
2023/10/01 02:59:13;;;;;;;12.00;7.97;;;14.50;99.90;;;;;;5077109;28;20041;-73
2023/10/01 03:01:45;;;;;;;12.00;7.65;;;14.50;99.90;;;;;;5076128;28;20439;-73
2023/10/01 03:04:15;;;;;;;12.55;8.18;;;14.50;99.90;;;;;;5076545;28;20092;-74
2023/10/01 03:06:47;;;;;;;11.07;7.25;;;14.50;99.90;;;;;;5076819;28;20496;-71
2023/10/01 03:09:29;;;;;;;9.48;6.97;;;14.50;99.90;;;;;;5076450;28;20048;-73
2023/10/01 03:12:24;;;;;;;11.75;7.50;;;14.50;99.90;;;;;;5076574;28;20075;-72
2023/10/01 03:14:59;;;;;;;11.32;7.90;;;14.50;99.90;;;;;;5076585;28;20095;-74
2023/10/01 03:17:38;;;;;;;12.68;7.95;;;14.50;99.90;;;;;;5074921;28;20049;-74
2023/10/01 03:22:53;;;;;;;13.63;7.47;;;14.50;99.90;;;;;;5076169;28;20055;-74
2023/10/01 03:25:20;;;;;;;11.88;7.80;;;14.50;99.90;;;;;;5059391;28;20056;-74
2023/10/01 03:27:45;;;;;;;13.15;7.80;;;14.50;99.90;;;;;;5074924;28;20060;-74
2023/10/01 03:30:23;;;;;;;11.23;7.45;;;14.50;99.90;;;;;;5075852;28;20048;-74
2023/10/01 03:32:49;;;;;;;11.05;7.90;;;14.50;99.90;;;;;;5076489;28;20067;-73
2023/10/01 03:35:15;;;;;;;14.98;8.20;;;14.50;99.90;;;;;;5075962;28;20382;-74
2023/10/01 03:37:43;;;;;;;11.75;7.63;;;14.40;99.90;;;;;;5076022;28;20080;-74
2023/10/01 03:40:21;;;;;;;12.20;7.50;;;14.40;99.90;;;;;;5076072;28;20098;-73
2023/10/01 03:42:54;;;;;;;13.77;7.82;;;14.40;99.90;;;;;;5075642;28;20084;-74
2023/10/01 03:47:58;;;;;;;11.48;7.68;;;14.40;99.90;;;;;;5075952;28;20056;-73
2023/10/01 03:50:25;;;;;;;12.77;7.32;;;14.50;99.90;;;;;;5076554;28;20454;-73
2023/10/01 03:52:54;;;;;;;12.05;6.90;;;14.40;99.90;;;;;;5075574;28;20059;-73
2023/10/01 03:55:28;;;;;;;12.18;7.32;;;14.50;99.90;;;;;;5076309;28;20095;-73
2023/10/01 03:58:07;;;;;;;10.05;7.38;;;14.50;99.90;;;;;;5075605;28;20048;-73
2023/10/01 04:00:41;;;;;;;12.48;7.00;;;14.50;99.90;;;;;;5076250;28;20055;-73
2023/10/01 04:03:13;;;;;;;12.07;7.43;;;14.50;99.90;;;;;;5058977;28;20056;-73
2023/10/01 04:05:46;;;;;;;11.80;6.80;;;14.50;99.90;;;;;;5075450;28;20040;-73
2023/10/01 04:08:13;;;;;;;13.48;7.43;;;14.60;99.90;;;;;;5075330;28;20060;-74
2023/10/01 04:10:39;;;;;;;10.65;7.30;;;14.60;99.90;;;;;;5075171;28;20048;-73
2023/10/01 04:13:12;;;;;;;10.18;6.80;;;14.60;99.90;;;;;;5075748;28;20084;-73
2023/10/01 04:15:48;;;;;;;14.38;7.00;;;14.60;99.90;;;;;;5076021;28;20040;-74
2023/10/01 04:23:32;;;;;;;10.93;6.38;;;14.60;99.90;;;;;;5075823;28;20044;-74
2023/10/01 04:26:06;;;;;;;10.60;6.63;;;14.60;99.90;;;;;;5074959;28;20047;-74
2023/10/01 04:28:44;;;;;;;10.30;7.13;;;14.60;99.90;;;;;;5074836;28;20048;-74
2023/10/01 04:31:14;;;;;;;10.93;6.70;;;14.60;99.90;;;;;;5074496;28;20489;-73
2023/10/01 04:33:49;;;;;;;9.38;6.22;;;14.60;99.90;;;;;;5075435;28;20487;-74
2023/10/01 04:36:20;;;;;;;8.85;6.07;;;14.60;99.90;;;;;;5074733;28;20493;-74
2023/10/01 04:38:49;;;;;;;9.85;6.47;;;14.60;99.90;;;;;;5075363;28;20048;-74
2023/10/01 04:41:18;;;;;;;11.07;6.03;;;14.60;99.90;;;;;;5074746;28;20094;-74
2023/10/01 04:46:46;;;;;;;10.15;6.07;;;14.60;99.90;;;;;;5052329;28;20059;-73
2023/10/01 04:49:27;;;;;;;9.90;6.00;;;14.60;99.90;;;;;;5064739;28;20061;-74
2023/10/01 04:52:01;;;;;;;8.77;5.80;;;14.60;99.90;;;;;;5074794;28;20044;-75
2023/10/01 04:54:28;;;;;;;9.95;6.00;;;14.60;99.90;;;;;;5074368;28;20418;-75
2023/10/01 04:56:57;;;;;;;10.57;6.03;;;14.70;99.90;;;;;;5074059;28;20386;-75
2023/10/01 04:59:24;;;;;;;8.50;5.50;;;14.70;99.90;;;;;;5074467;28;20051;-75
2023/10/01 05:01:56;;;;;;;9.77;5.25;;;14.70;99.90;;;;;;5074225;28;20052;-74
2023/10/01 05:04:26;;;;;;;9.40;5.90;;;14.70;99.90;;;;;;5073721;28;20044;-75
2023/10/01 05:07:04;;;;;;;10.50;5.50;;;14.70;99.90;;;;;;5074293;28;20045;-75
2023/10/01 05:09:33;;;;;;;9.95;5.35;;;14.70;99.90;;;;;;5074217;28;20052;-75
2023/10/01 05:12:01;;;;;;;8.95;5.95;;;14.60;99.90;;;;;;5074380;28;20045;-74
2023/10/01 05:14:28;;;;;;;10.55;5.78;;;14.60;99.90;;;;;;5074506;28;20040;-75
2023/10/01 05:16:54;;;;;;;11.60;5.68;;;14.70;99.90;;;;;;5074526;28;20127;-75
2023/10/01 05:19:23;;;;;;;9.90;5.45;;;14.70;99.90;;;;;;5074014;28;20409;-75
2023/10/01 05:21:56;;;;;;;9.57;5.55;;;14.70;99.90;;;;;;5073931;28;20051;-74
2023/10/01 05:24:34;;;;;;;9.00;5.53;;;14.70;99.90;;;;;;5074136;28;20091;-74
2023/10/01 05:27:08;;;;;;;11.48;6.00;;;14.70;99.90;;;;;;5073107;28;20056;-74
2023/10/01 05:29:39;;;;;;;10.02;5.53;;;14.70;99.90;;;;;;5074405;28;20109;-75
2023/10/01 05:32:05;;;;;;;10.85;6.20;;;14.70;99.90;;;;;;5073806;28;20055;-75
2023/10/01 05:34:34;;;;;;;9.52;5.18;;;14.70;99.90;;;;;;5074528;28;20047;-74
2023/10/01 05:37:09;;;;;;;9.63;5.40;;;14.70;99.90;;;;;;5073914;28;20049;-74
2023/10/01 05:39:55;;;;;;;9.38;5.75;;;14.70;99.90;;;;;;5073074;28;20064;-75
2023/10/01 05:42:28;;;;;;;8.27;4.78;;;14.70;99.90;;;;;;5073260;28;20059;-75
2023/10/01 05:44:59;;;;;;;9.32;5.50;;;14.60;99.90;;;;;;5073410;28;20511;-74
2023/10/01 05:47:50;;;;;;;10.13;5.40;;;14.70;99.90;;;;;;5074288;28;20084;-74
2023/10/01 05:50:18;;;;;;;9.10;5.43;;;14.70;99.90;;;;;;5073630;28;20168;-75
2023/10/01 05:52:45;;;;;;;10.85;5.00;;;14.70;99.90;;;;;;5073452;28;20044;-74
2023/10/01 05:55:12;;;;;;;9.38;5.55;;;14.70;99.90;;;;;;5073172;28;20078;-75
2023/10/01 05:57:38;;;;;;;10.00;4.85;;;14.70;99.90;;;;;;5072903;28;20053;-74
2023/10/01 06:00:16;;;;;;;9.88;5.38;;;14.80;99.90;;;;;;5073293;28;20084;-72
2023/10/01 06:03:06;;;;;;;9.82;5.43;;;14.80;99.90;;;;;;5073188;28;20059;-73
2023/10/01 06:05:33;;;;;;;10.65;5.38;;;14.80;99.90;;;;;;5072955;28;20052;-75
2023/10/01 06:08:18;;;;;;;11.00;4.95;;;14.80;99.90;;;;;;5072433;28;20544;-75
2023/10/01 06:11:13;;;;;;;11.82;5.55;;;14.90;99.90;;;;;;5073341;28;20049;-75
2023/10/01 06:13:48;;;;;;;8.38;5.28;;;14.90;99.90;;;;;;5072382;28;20052;-75
2023/10/01 06:16:15;;;;;;;12.88;6.15;;;14.90;99.90;;;;;;5074113;28;20044;-75
2023/10/01 06:18:49;;;;;;;9.13;5.47;;;14.80;99.90;;;;;;5073299;28;20127;-75
2023/10/01 06:21:18;;;;;;;9.05;5.65;;;14.80;99.90;;;;;;5072669;28;20057;-75
2023/10/01 06:23:49;;;;;;;11.25;5.75;;;14.80;99.90;;;;;;5072959;28;20485;-75
2023/10/01 06:26:22;;;;;;;10.73;5.32;;;14.80;99.90;;;;;;5073194;28;20102;-75
2023/10/01 06:28:51;;;;;;;10.00;5.60;;;14.80;99.90;;;;;;5073312;28;20048;-75
2023/10/01 06:31:20;;;;;;;12.55;5.93;;;14.80;99.90;;;;;;5073176;28;20055;-76
2023/10/01 06:33:46;;;;;;;9.82;5.03;;;14.80;99.90;;;;;;5073273;28;20048;-75
2023/10/01 06:36:15;;;;;;;10.75;5.88;;;14.80;99.90;;;;;;5073054;28;20045;-76
2023/10/01 06:38:44;;;;;;;9.30;5.28;;;14.80;99.90;;;;;;5073018;28;20401;-75
2023/10/01 06:41:25;;;;;;;13.13;6.40;;;14.80;99.90;;;;;;5073578;28;20386;-75
2023/10/01 06:43:56;;;;;;;9.95;5.75;;;14.80;99.90;;;;;;5072774;28;20504;-75
2023/10/01 06:46:28;;;;;;;9.57;5.97;;;14.80;99.90;;;;;;5073012;28;20090;-74
2023/10/01 06:48:58;;;;;;;9.85;5.50;;;14.80;99.90;;;;;;5072922;28;20103;-76
2023/10/01 06:51:26;;;;;;;10.20;6.38;;;14.80;99.90;;;;;;5075605;28;20110;-66
2023/10/01 06:53:58;;;;;;;10.63;6.53;;;14.80;99.90;;;;;;5076643;28;20135;-66
2023/10/01 06:56:26;;;;;;;11.02;5.97;;;14.80;99.90;;;;;;5077345;28;20036;-66
2023/10/01 07:01:59;;;;;;;11.30;6.13;;;14.80;99.90;;;;;;5075934;28;20063;-66
2023/10/01 07:04:25;;;;;;;9.85;5.88;;;14.70;99.90;;;;;;5076354;28;20115;-66
2023/10/01 07:06:51;;;;;;;10.75;6.03;;;14.60;99.90;;;;;;5076309;28;20052;-66
2023/10/01 07:09:24;;;;;;;14.88;6.63;;;14.50;99.90;;;;;;5076332;28;20045;-66
2023/10/01 07:11:52;;;;;;;9.95;6.15;;;14.50;99.90;;;;;;5075625;28;20091;-65
2023/10/01 07:14:29;;;;;;;9.63;5.95;;;14.50;99.90;;;;;;5076203;28;20041;-66
2023/10/01 07:16:56;;;;;;;11.07;6.85;;;14.40;99.90;;;;;;5076781;28;20048;-64
2023/10/01 07:19:22;;;;;;;10.93;6.18;;;14.40;99.90;;;;;;5076078;28;20393;-64
2023/10/01 07:21:56;;;;;;;9.75;5.95;;;14.40;99.90;;;;;;5076135;28;20045;-64
2023/10/01 07:24:23;;;;;;;12.20;6.70;;;14.40;99.90;;;;;;5076146;28;20048;-65
2023/10/01 07:26:50;;;;;;;11.10;6.53;;;14.40;99.90;;;;;;5075956;28;20059;-65
2023/10/01 07:29:16;;;;;;;11.52;6.45;;;14.40;99.90;;;;;;5075988;28;20084;-65
2023/10/01 07:31:43;;;;;;;13.00;6.30;;;14.40;99.90;;;;;;5076535;28;20056;-65
2023/10/01 07:34:16;;;;;;;10.23;6.95;;;14.40;99.90;;;;;;5075886;28;20101;-65
2023/10/01 07:36:45;;;;;;;9.40;6.28;;;14.40;99.90;;;;;;5075710;28;20063;-65
2023/10/01 07:39:15;;;;;;;11.60;5.95;;;14.50;99.90;;;;;;5075567;28;20044;-65
2023/10/01 07:41:44;;;;;;;10.93;5.80;;;14.50;99.90;;;;;;5075223;28;20517;-67
2023/10/01 07:44:12;;;;;;;11.38;5.97;;;14.50;99.90;;;;;;5075367;28;20044;-66
2023/10/01 07:46:38;;;;;;;10.32;6.03;;;14.60;99.90;;;;;;5075356;28;20127;-66
2023/10/01 07:49:04;;;;;;;10.38;5.80;;;14.60;99.90;;;;;;5075355;28;20175;-66
2023/10/01 07:51:39;;;;;;;11.48;6.07;;;14.70;99.90;;;;;;5075377;28;20049;-66
2023/10/01 07:54:12;;;;;;;10.93;6.32;;;14.70;99.90;;;;;;5075467;28;20041;-65
2023/10/01 07:56:48;;;;;;;10.02;5.57;;;14.80;99.90;;;;;;5075598;28;20178;-66
2023/10/01 07:59:28;;;;;;;9.77;5.50;;;14.90;99.90;;;;;;5075136;28;20084;-66
2023/10/01 08:07:18;;;;;;;11.40;5.50;;;15.00;99.90;;;;;;5075750;28;20060;-66
2023/10/01 08:09:54;;;;;;;9.05;5.43;;;15.00;99.90;;;;;;5074917;28;20052;-65
2023/10/01 08:15:16;;;;;;;11.80;5.57;;;15.20;99.90;;;;;;5074844;28;20048;-66
2023/10/01 08:17:45;;;;;;;10.48;5.68;;;15.30;99.90;;;;;;5075159;28;20651;-66
2023/10/01 08:20:17;;;;;;;10.18;5.57;;;15.30;99.90;;;;;;5074844;28;20052;-65
2023/10/01 08:22:43;;;;;;;10.52;5.07;;;15.40;99.90;;;;;;5074787;28;20052;-65
2023/10/01 08:25:12;;;;;;;9.60;5.13;;;15.50;99.90;;;;;;5075499;28;20127;-65
2023/10/01 08:28:08;;;;;;;11.48;5.45;;;15.50;99.90;;;;;;5074553;28;20069;-65
2023/10/01 08:30:38;;;;;;;9.82;5.10;;;15.60;99.90;;;;;;5074697;28;20539;-65
2023/10/01 08:33:21;;;;;;;9.60;5.50;;;15.60;99.90;;;;;;5075168;28;20040;-65
2023/10/01 08:35:56;;;;;;;9.40;5.55;;;15.60;99.90;;;;;;5075025;28;20045;-65
2023/10/01 08:38:29;;;;;;;10.30;5.68;;;15.60;99.90;;;;;;5073606;28;20059;-65
2023/10/01 08:41:00;;;;;;;9.27;5.22;;;15.70;99.90;;;;;;5075002;28;20092;-65
2023/10/01 08:43:30;;;;;;;10.68;5.22;;;15.80;99.90;;;;;;5075622;28;20435;-65
2023/10/01 08:46:07;;;;;;;9.27;4.80;;;15.80;99.90;;;;;;5074139;28;20620;-65
2023/10/01 08:48:36;;;;;;;10.15;5.03;;;15.90;99.90;;;;;;5074999;28;20051;-65
2023/10/01 08:51:11;;;;;;;10.50;5.20;;;15.90;99.90;;;;;;5074847;28;20133;-65
2023/10/01 08:53:42;;;;;;;10.93;5.00;;;16.00;99.90;;;;;;5074723;28;20052;-66
2023/10/01 08:56:32;;;;;;;11.13;5.03;;;16.00;99.90;;;;;;5073652;28;20474;-65
2023/10/01 08:58:59;;;;;;;;;;;16.00;99.90;;;;;;5074289;28;20060;-65
2023/10/01 09:01:28;;;;;;;9.10;5.75;;;16.10;99.90;;;;;;5074774;28;19954;-65
2023/10/01 09:03:57;;;;;;;10.18;4.80;;;16.10;99.90;;;;;;5074737;28;20358;-65
2023/10/01 09:06:26;;;;;;;9.68;5.10;;;16.20;99.90;;;;;;5073809;28;20045;-65
2023/10/01 09:08:56;;;;;;;9.35;4.65;;;16.20;99.90;;;;;;5074252;28;20164;-65
2023/10/01 09:11:47;;;;;;;9.63;5.13;;;16.30;99.90;;;;;;5073810;28;20067;-64
2023/10/01 09:14:21;;;;;;;9.55;5.07;;;16.40;99.90;;;;;;5073617;28;20056;-64
2023/10/01 09:16:57;;;;;;;8.73;5.25;;;16.50;99.90;;;;;;5073895;28;20067;-64
2023/10/01 09:19:30;;;;;;;9.82;5.10;;;16.50;99.90;;;;;;5074612;28;20044;-65
2023/10/01 09:22:04;;;;;;;8.35;5.03;;;16.50;99.90;;;;;;5074371;28;20044;-65
2023/10/01 09:24:39;;;;;;;9.63;5.30;;;16.50;99.90;;;;;;5074006;28;20153;-65
2023/10/01 09:30:26;;;;;;;9.00;4.57;;;16.70;99.90;;;;;;5051476;28;20068;-64
2023/10/01 09:32:57;;;;;;;7.70;4.45;;;17.00;99.90;;;;;;5071662;28;20529;-65
2023/10/01 09:35:39;;;;;;;7.53;4.55;;;17.10;99.90;;;;;;5072552;28;20040;-65
2023/10/01 09:38:12;;;;;;;8.30;4.93;;;17.20;99.90;;;;;;5074578;28;20079;-65
2023/10/01 09:40:43;;;;;;;9.30;4.80;;;17.40;99.90;;;;;;5073692;28;20056;-65
2023/10/01 09:43:18;;;;;;;10.98;4.90;;;17.60;99.90;;;;;;5073553;28;20079;-65
2023/10/01 09:45:49;;;;;;;9.02;5.00;;;17.70;99.90;;;;;;5073728;28;20047;-65
2023/10/01 09:48:36;;;;;;;8.15;4.57;;;17.80;99.90;;;;;;5073583;28;20099;-64
2023/10/01 09:51:16;;;;;;;8.38;5.13;;;17.80;99.90;;;;;;5073222;28;20051;-65
2023/10/01 09:53:54;;;;;;;9.05;4.70;;;17.80;99.90;;;;;;5074141;28;20516;-64
2023/10/01 09:56:26;;;;;;;8.85;5.28;;;17.70;99.90;;;;;;5073775;28;20197;-64
2023/10/01 09:59:01;;;;;;;9.63;5.35;;;17.60;99.90;;;;;;5074162;28;20386;-64
2023/10/01 10:01:29;;;;;;;10.63;5.35;;;17.60;99.90;;;;;;5073468;28;20050;-64
2023/10/01 10:04:01;;;;;;;9.52;4.97;;;17.60;99.90;;;;;;5073850;28;20036;-65
2023/10/01 10:06:29;;;;;;;9.05;4.95;;;17.60;99.90;;;;;;5072711;28;20040;-65
2023/10/01 10:09:05;;;;;;;9.05;5.03;;;17.70;99.90;;;;;;5072183;28;20052;-65
2023/10/01 10:11:36;;;;;;;7.90;4.78;;;17.90;99.90;;;;;;5073623;28;20083;-64
2023/10/01 10:14:28;;;;;;;9.80;4.90;;;17.80;99.90;;;;;;5073334;28;20063;-65
2023/10/01 10:17:07;;;;;;;10.02;5.10;;;17.90;99.90;;;;;;5073485;28;20131;-65
2023/10/01 10:19:53;;;;;;;9.23;5.45;;;17.90;99.90;;;;;;5072143;28;20135;-64
2023/10/01 10:22:19;;;;;;;10.48;5.28;;;18.00;99.90;;;;;;5071668;28;20050;-65
2023/10/01 10:24:46;;;;;;;9.82;5.10;;;17.90;99.90;;;;;;5073272;28;20128;-64
2023/10/01 10:27:24;;;;;;;6.85;4.50;;;17.90;99.90;;;;;;5077196;28;20045;-65
2023/10/01 10:29:56;;;;;;;6.95;4.78;;;17.90;99.90;;;;;;5077691;28;20048;-65
2023/10/01 10:32:28;;;;;;;10.32;5.07;;;18.00;99.90;;;;;;5077171;28;20117;-65
2023/10/01 10:35:06;;;;;;;9.45;4.55;;;18.10;99.90;;;;;;5076954;28;20045;-65
2023/10/01 10:37:35;;;;;;;8.50;5.28;;;18.20;99.90;;;;;;5077127;28;20447;-65
2023/10/01 10:42:41;;;;;;;8.55;4.97;;;18.40;99.90;;;;;;5077300;28;20055;-64
2023/10/01 10:45:20;;;;;;;10.18;5.50;;;18.50;99.90;;;;;;5076860;28;20496;-65
2023/10/01 10:47:58;;;;;;;11.25;5.03;;;18.80;99.90;;;;;;5076784;28;20048;-64
2023/10/01 10:50:44;;;;;;;8.00;5.03;;;18.70;99.90;;;;;;5077375;28;20045;-65
2023/10/01 10:53:19;;;;;;;8.85;4.55;;;18.80;99.90;;;;;;5076679;28;20080;-66
2023/10/01 10:55:54;;;;;;;8.52;4.90;;;18.90;99.90;;;;;;5076649;28;20040;-65
2023/10/01 10:58:24;;;;;;;9.00;4.40;;;19.00;99.90;;;;;;5075702;28;20428;-65
2023/10/01 11:00:51;;;;;;;9.38;4.85;;;19.20;99.90;;;;;;5076525;28;20041;-65
2023/10/01 11:03:40;;;;;;;10.23;5.05;;;19.40;99.90;;;;;;5076630;28;20036;-65
2023/10/01 11:06:21;;;;;;;8.02;4.82;;;19.50;99.90;;;;;;5075133;28;20519;-65
2023/10/01 11:08:51;;;;;;;9.45;4.38;;;19.40;99.90;;;;;;5076483;28;20050;-64
2023/10/01 11:11:28;;;;;;;8.68;4.07;;;19.30;99.90;;;;;;5077336;28;20102;-65
2023/10/01 11:14:00;;;;;;;8.90;4.82;;;19.30;99.90;;;;;;5076628;28;20048;-66
2023/10/01 11:16:37;;;;;;;7.90;4.68;;;19.40;99.90;;;;;;5076890;28;20044;-66
2023/10/01 11:19:14;;;;;;;12.30;5.30;;;19.50;99.90;;;;;;5076282;28;20052;-65
2023/10/01 11:21:54;;;;;;;8.38;4.78;;;19.50;99.90;;;;;;5076271;28;20090;-65
2023/10/01 11:24:29;;;;;;;9.63;4.57;;;19.40;99.90;;;;;;5076102;28;20115;-66
2023/10/01 11:27:43;;;;;;;9.83;4.40;;;19.40;99.90;;;;;;5076234;28;20052;-65
2023/10/01 11:30:16;;;;;;;8.75;4.70;;;19.40;99.90;;;;;;5076556;28;20048;-66
2023/10/01 11:33:29;;;;;;;9.30;4.90;;;19.40;99.90;;;;;;5076018;28;20062;-65
2023/10/01 11:38:34;;;;;;;11.75;4.72;;;19.50;99.90;;;;;;5074916;28;20103;-65
2023/10/01 11:41:09;;;;;;;11.48;4.95;;;19.60;99.90;;;;;;5076143;28;20061;-65
2023/10/01 11:43:58;;;;;;;9.57;5.27;;;19.60;99.90;;;;;;5076686;28;20044;-65
2023/10/01 11:49:15;;;;;;;6.88;4.10;;;19.70;99.90;;;;;;5075899;28;20052;-65
2023/10/01 11:51:54;;;;;;;11.70;4.40;;;19.80;99.90;;;;;;5075425;28;20048;-65
2023/10/01 11:54:44;;;;;;;8.13;4.47;;;19.80;99.90;;;;;;5075717;28;20053;-65
2023/10/01 11:57:22;;;;;;;10.02;4.90;;;19.90;99.90;;;;;;5076089;28;20052;-65
2023/10/01 11:59:56;;;;;;;8.60;4.75;;;19.90;99.90;;;;;;5076158;28;20052;-65
2023/10/01 12:02:33;;;;;;;9.23;4.70;;;20.00;99.90;;;;;;5076074;28;20397;-65
2023/10/01 12:05:03;;;;;;;8.65;4.93;;;20.00;99.90;;;;;;5074428;28;20537;-65
2023/10/01 12:07:39;;;;;;;10.43;4.38;;;20.00;99.90;;;;;;5074398;28;20045;-64
2023/10/01 12:10:07;;;;;;;11.10;4.80;;;20.00;99.90;;;;;;5075600;28;20441;-65
2023/10/01 12:12:39;;;;;;;8.65;4.70;;;20.10;99.90;;;;;;5075005;28;20040;-65
2023/10/01 12:17:51;;;;;;;10.35;4.20;;;20.20;99.90;;;;;;5075548;28;20057;-65
2023/10/01 12:20:22;;;;;;;7.60;3.92;;;20.20;99.90;;;;;;5074170;28;20059;-65
2023/10/01 12:23:10;;;;;;;9.40;4.57;;;20.30;99.90;;;;;;5075082;28;20076;-65
2023/10/01 12:28:17;;;;;;;;;;;20.30;99.90;;;;;;5075784;28;20059;-65
2023/10/01 12:30:44;;;;;;;9.65;4.32;;;20.40;99.90;;;;;;5074952;28;19966;-65
2023/10/01 12:33:10;;;;;;;9.02;4.20;;;20.40;99.90;;;;;;5075303;28;20068;-65
2023/10/01 12:35:36;;;;;;;7.72;4.53;;;20.40;99.90;;;;;;5075364;28;20113;-65
2023/10/01 12:40:49;;;;;;;10.20;4.32;;;20.50;99.90;;;;;;5074791;28;20061;-65
2023/10/01 12:46:00;;;;;;;8.75;4.60;;;20.50;99.90;;;;;;5074852;28;20393;-66
2023/10/01 12:48:26;;;;;;;8.52;4.40;;;20.60;99.90;;;;;;5074334;28;20044;-66
2023/10/01 12:51:03;;;;;;;8.18;4.18;;;20.70;99.90;;;;;;5074550;28;20057;-66
2023/10/01 12:53:34;;;;;;;8.82;4.53;;;20.70;99.90;;;;;;5074531;28;20044;-65
2023/10/01 12:56:04;;;;;;;7.88;3.92;;;20.80;99.90;;;;;;5075279;28;20063;-65
2023/10/01 12:58:36;;;;;;;11.32;4.60;;;20.90;99.90;;;;;;5075512;28;20045;-65
2023/10/01 13:01:31;;;;;;;8.15;4.18;;;21.00;99.90;;;;;;5074144;28;20044;-65
2023/10/01 13:06:48;;;;;;;6.32;3.75;;;21.10;99.90;;;;;;5074795;28;20098;-65
2023/10/01 13:12:15;;;;;;;8.50;3.75;;;21.30;99.90;;;;;;5074197;28;20053;-65
2023/10/01 13:14:42;;;;;;;7.75;3.65;;;21.40;99.90;;;;;;5074307;28;20536;-66
2023/10/01 13:17:19;;;;;;;7.68;3.40;;;21.40;99.90;;;;;;5074355;28;20048;-66
2023/10/01 13:19:49;;;;;;;8.30;4.18;;;21.50;99.90;;;;;;5074350;28;20478;-65
2023/10/01 13:22:20;;;;;;;8.55;3.90;;;21.50;99.90;;;;;;5074684;28;20117;-65
2023/10/01 13:24:55;;;;;;;8.35;3.90;;;21.60;99.90;;;;;;5074243;28;20040;-65
2023/10/01 13:27:22;;;;;;;8.07;3.72;;;21.60;99.90;;;;;;5074461;28;20098;-66
2023/10/01 13:30:18;;;;;;;7.30;3.85;;;21.70;99.90;;;;;;5073857;28;20129;-65
2023/10/01 13:32:57;;;;;;;8.20;3.47;;;21.80;99.90;;;;;;5073961;28;20056;-65
2023/10/01 13:35:49;;;;;;;7.80;3.78;;;21.70;99.90;;;;;;5072647;28;20136;-65
2023/10/01 14:08:50;;;;;;;6.70;3.10;;;22.00;99.90;;;;;;5074068;28;20053;-66
2023/10/01 14:11:16;;;;;;;5.88;2.97;;;22.00;99.90;;;;;;5073652;28;20049;-65
2023/10/01 14:13:43;;;;;;;5.10;3.30;;;21.90;99.90;;;;;;5073418;28;20153;-65
2023/10/01 14:16:12;;;;;;;7.55;3.05;;;21.90;99.90;;;;;;5073210;28;20145;-65
2023/10/01 14:18:53;;;;;;;7.43;3.13;;;21.90;99.90;;;;;;5073287;28;20053;-65
2023/10/01 14:21:27;;;;;;;6.40;3.00;;;21.90;99.90;;;;;;5073414;28;20105;-65
2023/10/01 14:26:38;;;;;;;7.27;3.60;;;21.80;99.90;;;;;;5073752;28;20045;-65
2023/10/01 14:29:05;;;;;;;6.65;3.55;;;21.70;99.90;;;;;;5073274;28;20385;-65
2023/10/01 14:31:41;;;;;;;6.03;2.78;;;21.70;99.90;;;;;;5073194;28;20052;-65
2023/10/01 14:34:08;;;;;;;6.30;2.83;;;21.60;99.90;;;;;;5072502;28;20052;-65
2023/10/01 14:36:41;;;;;;;6.90;3.00;;;21.50;99.90;;;;;;5072932;28;20045;-65